KFTY/FTY METAR and TAF weather

Enter ICAO airport designator
Station Type Date Time Source
KFTY METAR 2020/10/29 16:53 UTC NOAA

KFTY 291653Z 24008G17KT 10SM BKN023 BKN027 OVC043 25/21 A2972 RMK AO2 SLP052 T02500206


Station Type Date Time Source
KFTY Decoded METAR 2020/10/29 16:53 UTC NOAA

ATLANTA FULTON COUNTY AIRPORT , GA, United States (KFTY) 33-47N 84-31W 263M
Oct 29, 2020 - 12:53 PM EDT / 2020.10.29 1653 UTC
Wind: from the WSW (240 degrees) at 9 MPH (8 KT) gusting to 20 MPH (17 KT):0
Visibility: 10 mile(s):0
Sky conditions: overcast
Temperature: 77.0 F (25.0 C)
Dew Point: 69.1 F (20.6 C)
Relative Humidity: 76%
Pressure (altimeter): 29.72 in. Hg (1006 hPa)
ob: KFTY 291653Z 24008G17KT 10SM BKN023 BKN027 OVC043 25/21 A2972 RMK AO2 SLP052 T02500206
cycle: 17

Station Type Date Time Source
KFTY TAF 2020/10/29 18:36 UTC NOAA

TAF KFTY 291733Z 2918/3018 24010G16KT P6SM BKN025 BKN045
TEMPO 2918/2921 SCT025 BKN045
FM292100 23010G16KT P6SM SCT030 BKN050
FM300500 30012G22KT P6SM BKN025 BKN050
FM301300 32012G22KT P6SM SCT030 BKN040

Example: see airport list